Celtic Voyager — EIQN — position and weather

sailwx.info

Track history (hours):
 
Tides and Currents Weather Stations Pressure Air Temp Water Temp Dewpoint Dewpoint Depression Visibility Wind Speed Wind Dir Waves Ship Positions

Oceanographic research ship Celtic Voyager (Ireland)

Detailed information on ship capabilities available from University of Delaware's Ocean Information Center.

Last reported at 2020-Jul-06 19:00 UTC. Time now 2020-Jul-07 14:48 UTC.
Position N 51°50' W 008°19'.

Length 31 m; beam 8 m.

Type: Ship. MMSI: 250089000.

Date/timePositionNaut miles runAvg speedWind from/ knotsBaromVisibWave heightAir tempDewpointWater temp
2020-Jul-06 19:00N 51°50' W 008°19'3 5.3
2020-Jul-06 18:30N 51°49' W 008°16'8 7.6
2020-Jul-06 17:30N 51°45' W 008°05'1 2.6
2020-Jul-06 17:01N 51°44' W 008°04'8 1.5
2020-Jul-06 12:00N 51°36' W 008°03'5 5.1
2020-Jul-06 11:00N 51°40' W 007°58'2 2.3
2020-Jul-06 10:00N 51°40' W 007°54'1 2.7
2020-Jul-06 09:30N 51°41' W 007°52'6 5.3
2020-Jul-06 08:27N 51°42' W 007°44'22 5.2
2020-Jul-06 04:17N 52°01' W 007°26'1 0.7
2020-Jul-06 02:59N 52°01' W 007°28'3 5.8
2020-Jul-06 02:30N 51°59' W 007°31'9 8.5
2020-Jul-06 01:28N 51°55' W 007°43'22 6.4
2020-Jul-05 22:00N 51°51' W 008°18'  
2020-Jul-03 09:28N 51°54' W 008°27'3 7.4
2020-Jul-03 09:00N 51°53' W 008°21'3 6.0
2020-Jul-03 08:30N 51°51' W 008°18'14 7.1
2020-Jul-03 06:30N 51°38' W 008°26'53 5.3
2020-Jul-02 20:30N 51°36' W 009°51'3 2.9
2020-Jul-02 19:30N 51°33' W 009°54'8 7.5
2020-Jul-02 18:30N 51°34' W 010°06'103 4.2
2020-Jul-01 18:12N 53°16' W 010°13'18 0.7
2020-Jun-30 15:25N 53°11' W 009°45'4 1.6
2020-Jun-30 13:07N 53°11' W 009°39'0 0.1
2020-Jun-30 07:29N 53°12' W 009°38'0 0.3
2020-Jun-30 06:30N 53°11' W 009°38'  
Track history (hours):
 
Tides and Currents Weather Stations Pressure Air Temp Water Temp Dewpoint Dewpoint Depression Visibility Wind Speed Wind Dir Waves Ship Positions

Oceanographic research ship Celtic Voyager (Ireland)

Detailed information on ship capabilities available from University of Delaware's Ocean Information Center.

Last reported at 2020-Jul-06 19:00 UTC. Time now 2020-Jul-07 14:48 UTC.
Position N 51°50' W 008°19'.

Length 31 m; beam 8 m.

Type: Ship. MMSI: 250089000.

Date/timePositionNaut miles runAvg speedWind from/ knotsBaromVisibWave heightAir tempDewpointWater temp
2020-Jul-06 19:00N 51°50' W 008°19'3 5.3
2020-Jul-06 18:30N 51°49' W 008°16'8 7.6
2020-Jul-06 17:30N 51°45' W 008°05'1 2.6
2020-Jul-06 17:01N 51°44' W 008°04'8 1.5
2020-Jul-06 12:00N 51°36' W 008°03'5 5.1
2020-Jul-06 11:00N 51°40' W 007°58'2 2.3
2020-Jul-06 10:00N 51°40' W 007°54'1 2.7
2020-Jul-06 09:30N 51°41' W 007°52'6 5.3
2020-Jul-06 08:27N 51°42' W 007°44'22 5.2
2020-Jul-06 04:17N 52°01' W 007°26'1 0.7
2020-Jul-06 02:59N 52°01' W 007°28'3 5.8
2020-Jul-06 02:30N 51°59' W 007°31'9 8.5
2020-Jul-06 01:28N 51°55' W 007°43'22 6.4
2020-Jul-05 22:00N 51°51' W 008°18'  
2020-Jul-03 09:28N 51°54' W 008°27'3 7.4
2020-Jul-03 09:00N 51°53' W 008°21'3 6.0
2020-Jul-03 08:30N 51°51' W 008°18'14 7.1
2020-Jul-03 06:30N 51°38' W 008°26'53 5.3
2020-Jul-02 20:30N 51°36' W 009°51'3 2.9
2020-Jul-02 19:30N 51°33' W 009°54'8 7.5
2020-Jul-02 18:30N 51°34' W 010°06'103 4.2
2020-Jul-01 18:12N 53°16' W 010°13'18 0.7
2020-Jun-30 15:25N 53°11' W 009°45'4 1.6
2020-Jun-30 13:07N 53°11' W 009°39'0 0.1
2020-Jun-30 07:29N 53°12' W 009°38'0 0.3
2020-Jun-30 06:30N 53°11' W 009°38'  

Dump ship's entire track history